KE0MVE Weather Reports


time (UTC)temp
F
wind
direction
speed
knots
gust
knots
rain 1hr
in
rain 24hr
in
rain mn
in
humidity
%
barometer
mb
20220930010049 62 223 0.0 3.5 0.00 0.00 0.00 42 989.7
20220930004531 63 87 0.0 2.6 0.00 0.00 0.00 42 989.7
20220930003043 63 225 0.0 4.3 0.00 0.00 0.00 41 989.8
20220930001538 64 96 0.0 4.3 0.00 0.00 0.00 40 989.8
20220930000039 65 165 0.9 6.1 0.00 0.00 0.00 38 990.0
20220929234630 65 120 0.9 4.3 0.00 0.00 0.00 36 989.7
20220929233033 66 176 1.7 7.8 0.00 0.00 0.00 35 989.6
20220929231523 67 118 2.6 10.4 0.00 0.00 0.00 34 989.8
20220929230041 68 145 1.7 7.8 0.00 0.00 0.00 33 990.0
20220929224525 68 253 3.5 9.6 0.00 0.00 0.00 33 990.2
20220929223005 68 95 1.7 7.8 0.00 0.00 0.00 34 990.4
20220929221501 69 102 2.6 6.1 0.00 0.00 0.00 33 990.7
20220929220059 69 101 0.9 7.8 0.00 0.00 0.00 36 990.9
20220929214615 69 154 1.7 5.2 0.00 0.00 0.00 34 991.1
20220929213106 69 283 1.7 9.6 0.00 0.00 0.00 35 991.3
20220929211557 69 155 2.6 9.6 0.00 0.00 0.00 34 991.4
20220929210108 69 199 0.9 9.6 0.00 0.00 0.00 35 991.5
20220929204635 69 196 2.6 7.8 0.00 0.00 0.00 35 991.5
20220929203028 68 222 2.6 11.3 0.00 0.00 0.00 37 991.6
20220929201527 68 217 3.5 7.0 0.00 0.00 0.00 36 991.8
20220929200008 68 231 3.5 8.7 0.00 0.00 0.00 36 992.0
20220929194511 67 99 2.6 7.8 0.00 0.00 0.00 40 992.2
20220929193102 67 80 1.7 7.8 0.00 0.00 0.00 42 992.4
20220929191550 66 88 1.7 8.7 0.00 0.00 0.00 42 992.7
20220929190053 66 136 1.7 9.6 0.00 0.00 0.00 44 992.8
20220929184543 66 135 2.6 8.7 0.00 0.00 0.00 43 993.0
20220929183043 65 167 2.6 8.7 0.00 0.00 0.00 44 993.3
20220929181549 65 235 2.6 7.8 0.00 0.00 0.00 46 993.3
20220929180033 64 155 2.6 6.1 0.00 0.00 0.00 45 994.1
20220929174536 63 221 2.6 9.6 0.00 0.00 0.00 49 994.3
20220929173018 62 250 5.2 12.2 0.00 0.00 0.00 48 994.3
20220929171532 62 161 6.1 13.9 0.00 0.00 0.00 48 994.4
20220929170052 62 59 2.6 7.0 0.00 0.00 0.00 50 994.6
20220929164610 61 144 1.7 10.4 0.00 0.00 0.00 52 994.9
20220929163056 60 261 3.5 9.6 0.00 0.00 0.00 53 995.0
20220929161550 59 181 2.6 11.3 0.00 0.00 0.00 55 995.2
20220929160045 59 231 2.6 7.8 0.00 0.00 0.00 56 995.3
20220929154544 57 240 4.3 9.6 0.00 0.00 0.00 58 995.7
20220929153043 56 226 3.5 7.8 0.00 0.00 0.00 59 995.8
20220929151548 56 230 1.7 7.8 0.00 0.00 0.00 61 995.4
20220929150024 54 222 2.6 8.7 0.00 0.00 0.00 63 995.9
20220929144523 53 217 0.9 8.7 0.00 0.00 0.00 64 996.1
20220929143005 52 233 2.6 5.2 0.00 0.00 0.00 64 996.2
20220929141505 51 240 1.7 7.0 0.00 0.00 0.00 66 996.1
20220929140048 49 219 2.6 5.2 0.00 0.00 0.00 68 995.7
20220929134602 48 201 0.9 4.3 0.00 0.00 0.00 71 996.3
20220929133033 46 143 0.0 3.5 0.00 0.00 0.00 74 995.8
20220929131535 43 137 0.0 2.6 0.00 0.00 0.00 82 995.9
20220929130011 39 99 0.0 1.7 0.00 0.00 0.00 88 996.5
20220929124510 39 110 0.0 0.9 0.00 0.00 0.00 88 995.9
20220929123054 38 110 0.0 0.0 0.00 0.00 0.00 89 996.0
20220929121605 38 110 0.0 0.0 0.00 0.00 0.00 89 996.3
20220929120100 38 110 0.0 0.0 0.00 0.00 0.00 90 995.9
20220929114539 37 110 0.0 0.0 0.00 0.00 0.00 91 996.2
20220929113017 37 110 0.0 0.0 0.00 0.00 0.00 91 995.9
20220929111516 37 110 0.0 0.0 0.00 0.00 0.00 91 995.9
20220929110008 37 110 0.0 0.0 0.00 0.00 0.00 91 996.3
20220929104502 37 110 0.0 0.0 0.00 0.00 0.00 92 996.0
20220929103005 37 110 0.0 0.0 0.00 0.00 0.00 92 996.0
20220929101600 36 110 0.0 0.0 0.00 0.00 0.00 92 996.5
20220929100108 36 110 0.0 0.0 0.00 0.00 0.00 91 996.0
20220929094557 37 110 0.0 0.0 0.00 0.00 0.00 91 996.4
20220929093056 37 110 0.0 0.0 0.00 0.00 0.00 92 996.1
20220929091604 37 110 0.0 0.0 0.00 0.00 0.00 91 996.0
20220929090044 37 110 0.0 0.0 0.00 0.00 0.00 91 996.4
20220929084541 37 110 0.0 0.0 0.00 0.00 0.00 91 996.3
20220929083040 37 110 0.0 0.0 0.00 0.00 0.00 91 996.4
20220929081538 37 110 0.0 0.0 0.00 0.00 0.00 91 997.1
20220929080038 38 110 0.0 0.0 0.00 0.00 0.00 91 996.7
20220929074541 38 110 0.0 0.0 0.00 0.00 0.00 91 997.1
20220929073050 38 110 0.0 0.0 0.00 0.00 0.00 91 996.9
20220929071536 38 110 0.0 0.0 0.00 0.00 0.00 91 996.8
20220929070019 37 110 0.0 0.0 0.00 0.00 0.00 90 997.3
20220929064521 38 110 0.0 0.0 0.00 0.00 0.00 89 996.9
20220929063005 38 110 0.0 0.0 0.00 0.00 0.00 89 997.2
20220929061503 38 110 0.0 0.0 0.00 0.00 0.00 88 997.4
20220929060010 38 110 0.0 0.0 0.00 0.00 0.00 88 996.8
20220929054607 38 110 0.0 0.0 0.00 0.00 0.00 87 997.0
20220929053057 39 110 0.0 0.0 0.00 0.00 0.00 86 996.9
20220929051556 39 110 0.0 0.0 0.00 0.00 0.00 85 997.1
20220929050055 40 110 0.0 0.0 0.00 0.00 0.00 84 997.6
20220929044552 40 110 0.0 0.0 0.00 0.00 0.00 84 997.0
20220929043039 41 110 0.0 0.0 0.00 0.00 0.00 83 997.4
20220929041537 41 110 0.0 0.0 0.00 0.00 0.00 81 997.2
20220929040127 42 110 0.0 0.0 0.00 0.00 0.00 80 997.1
20220929034550 43 110 0.0 0.0 0.00 0.00 0.00 80 997.6
20220929033031 43 110 0.0 0.0 0.00 0.00 0.00 79 997.2
20220929031535 43 110 0.0 0.0 0.00 0.00 0.00 79 997.6
20220929030030 43 110 0.0 0.0 0.00 0.00 0.00 81 997.4
20220929024541 43 110 0.0 0.0 0.00 0.00 0.00 79 997.1
20220929023007 44 110 0.0 0.0 0.00 0.00 0.00 77 997.7
20220929021507 45 110 0.0 0.0 0.00 0.00 0.00 76 997.1
20220929020105 45 110 0.0 0.0 0.00 0.00 0.00 73 997.2
20220929014557 46 110 0.0 0.0 0.00 0.00 0.00 71 997.6
20220929013056 47 110 0.0 0.0 0.00 0.00 0.00 69 997.0
20220929011544 48 110 0.0 0.0 0.00 0.00 0.00 68 997.0